Airfield :
LOGIN :

Register | Disclaimer

   EN    FR    IT 

 










Legend :    VFR   Marginal VFR   IFR   Intensive IFR   Very Intensive IFR
Visi :
Ceiling :
>= 8 km
>= 3000ft
5 to 8 km
1000 to 3000 ft
1500m to 5 km
500 to 1000 ft
800 to 1500m
200 to 500 ft
< 800m
< 200 ft
Symbols :   Thunderstorms  Fog  Heavy snow  Heavy precipitations  Wind > 20 kt
SIGMETs :     Misc.  Thunderstorms  Icing  Turbulence  Mountain Waves  Volcanic Ashes






- Airport Elevation : 87 ft
- IATA code : FSC


LFKF - Figari

CURRENT METAR :
  • 071000Z AUTO 24018KT 9999 SCT011 SCT016 BKN028 20/15 Q1016 BECMG 26015G25KT

EXPIRED METARs :
  • 070930Z AUTO 24017KT 9999 OVC027 19/15 Q1016 BECMG 26015G25KT
  • 070900Z AUTO 26015KT 9999 BKN025 OVC030 19/14 Q1015 BECMG 26015G25KT
  • 070830Z AUTO 25015KT 9999 BKN026 OVC033 19/14 Q1015 BECMG 26015G25KT
  • 070800Z AUTO 24016KT 9999 BKN029 BKN034 20/15 Q1015 BECMG 25015G25KT
  • 070730Z AUTO 25014KT 9999 BKN028 BKN035 19/15 Q1015 BECMG 25015G25KT

TAF TAF LFKF
Valid from the 07 at 09:00 until the 08 at 09:00 UTC


070800Z 0709/0809 26015G25KT 9999 FEW020 BKN030
BECMG 0711/0713 CAVOK
TEMPO 0712/0716 27020G35KT
BECMG 0719/0721 25010KT



MET'MAP, your aeronautical weather chart ! - Copyright ORBIFLY December 2007 - Disclaimer

ORBIFLY MET'MAP TEAM :

Programming & Development : Alexandra Zaïnal
Concept & original design : Baudouin d'Aumeries
Assistance for programming : Marc-Olivier Méhu
Technical & hardware support : Manuel Goepfert

Contact : metmap@orbifly.com




SOURCES & CREDITS :

   NOAA